Time;durP1;ratioP1;P1;durP2;ratioP2;P2;SDS_P1;SDS_P2;PMS_P1;PMS_P2;Temp;Humidity;BMP_temperature;BMP_pressure;BME280_temperature;BME280_humidity;BME280_pressure;Samples;Min_cycle;Max_cycle;Signal;HPM_P1;HPM_P2
2022/09/01 00:02:32;;;;;;;2.33;2.00;;;9.90;99.90;;;;;;8338911;28;20191;-69
2022/09/01 00:06:33;;;;;;;2.87;1.97;;;9.90;99.90;;;;;;8345568;28;20421;-69
2022/09/01 00:10:34;;;;;;;2.90;2.40;;;9.90;99.90;;;;;;8342790;28;20316;-69
2022/09/01 00:14:39;;;;;;;2.10;1.90;;;9.90;99.90;;;;;;8344585;28;20336;-69
2022/09/01 00:18:41;;;;;;;2.30;2.10;;;9.90;99.90;;;;;;8352380;28;20234;-69
2022/09/01 00:22:42;;;;;;;3.87;2.27;;;9.80;99.90;;;;;;8346607;28;20214;-69
2022/09/01 00:26:44;;;;;;;3.00;2.57;;;9.80;99.90;;;;;;8348488;28;20277;-69
2022/09/01 00:30:45;;;;;;;2.67;2.27;;;9.80;99.90;;;;;;8350961;28;20272;-69
2022/09/01 00:34:46;;;;;;;3.33;2.17;;;9.80;99.90;;;;;;8361233;28;20190;-69
2022/09/01 00:38:48;;;;;;;3.63;2.27;;;9.90;99.90;;;;;;8351110;28;20182;-70
2022/09/01 00:42:49;;;;;;;3.47;2.50;;;10.00;99.90;;;;;;8350651;28;20217;-69
2022/09/01 00:46:52;;;;;;;4.53;2.73;;;10.00;99.90;;;;;;8348278;28;20180;-70
2022/09/01 00:50:53;;;;;;;4.23;2.40;;;10.10;99.90;;;;;;8344966;28;20249;-69
2022/09/01 00:54:57;;;;;;;3.37;2.60;;;10.10;99.90;;;;;;8350898;28;20408;-69
2022/09/01 00:58:59;;;;;;;2.53;2.23;;;10.20;99.90;;;;;;8349454;28;20191;-69
2022/09/01 01:03:00;;;;;;;2.40;2.20;;;10.20;99.90;;;;;;8342863;28;20217;-69
2022/09/01 01:07:01;;;;;;;2.90;2.10;;;10.20;99.90;;;;;;8359726;28;20211;-69
2022/09/01 01:11:05;;;;;;;4.30;2.40;;;10.30;99.90;;;;;;8346520;28;20187;-69
2022/09/01 01:15:07;;;;;;;3.50;2.57;;;10.40;99.90;;;;;;8348416;28;20640;-69
2022/09/01 01:23:00;;;;;;;3.87;2.67;;;10.40;99.90;;;;;;8348997;28;20269;-69
2022/09/01 01:23:44;;;;;;;3.80;2.40;;;10.50;99.90;;;;;;8346132;28;20232;-68
2022/09/01 01:27:45;;;;;;;4.00;2.50;;;10.50;99.90;;;;;;8342977;28;20186;-70
2022/09/01 01:31:48;;;;;;;2.93;2.30;;;10.50;99.90;;;;;;8347099;28;20290;-69
2022/09/01 01:35:50;;;;;;;4.33;2.53;;;10.60;99.90;;;;;;8343027;28;20180;-71
2022/09/01 01:39:51;;;;;;;2.73;2.30;;;10.60;99.90;;;;;;8348782;28;20294;-69
2022/09/01 01:43:52;;;;;;;4.20;2.40;;;10.60;99.90;;;;;;8355543;28;20215;-69
2022/09/01 01:47:54;;;;;;;3.53;2.23;;;10.60;99.90;;;;;;8344323;28;20254;-69
2022/09/01 01:51:56;;;;;;;2.10;1.90;;;10.60;99.90;;;;;;8342984;28;20199;-69
2022/09/01 01:55:58;;;;;;;2.63;2.07;;;10.60;99.90;;;;;;8346999;28;20282;-69
2022/09/01 02:00:00;;;;;;;2.70;1.87;;;10.70;99.90;;;;;;8342557;28;20191;-69
2022/09/01 02:04:02;;;;;;;2.10;1.70;;;10.70;99.90;;;;;;8347889;28;20218;-69
2022/09/01 02:08:09;;;;;;;3.87;2.20;;;10.70;99.90;;;;;;8380545;28;20181;-69
2022/09/01 02:12:10;;;;;;;2.33;2.10;;;10.70;99.90;;;;;;8360677;28;20271;-69
2022/09/01 02:16:12;;;;;;;2.20;1.87;;;10.80;99.90;;;;;;8354325;28;20502;-69
2022/09/01 02:20:14;;;;;;;2.30;2.10;;;10.80;99.90;;;;;;8345527;28;20208;-69
2022/09/01 02:24:15;;;;;;;2.10;1.80;;;10.80;99.90;;;;;;8342921;28;20822;-70
2022/09/01 02:28:18;;;;;;;2.13;1.83;;;10.80;99.90;;;;;;8347054;28;20178;-69
2022/09/01 02:32:20;;;;;;;2.03;1.83;;;10.80;99.90;;;;;;8345226;28;20198;-66
2022/09/01 02:36:23;;;;;;;7.43;2.43;;;10.90;99.90;;;;;;8343253;28;20184;-69
2022/09/01 02:40:24;;;;;;;2.10;1.90;;;10.90;99.90;;;;;;8348664;28;20187;-69
2022/09/01 02:44:26;;;;;;;2.83;2.00;;;11.00;99.90;;;;;;8337197;28;20484;-69
2022/09/01 02:48:36;;;;;;;3.33;2.13;;;11.00;99.90;;;;;;8343604;28;20188;-70
2022/09/01 02:52:36;;;;;;;3.30;1.90;;;11.00;99.90;;;;;;8352495;28;20193;-69
2022/09/01 02:56:37;;;;;;;2.83;2.00;;;11.00;99.90;;;;;;8344202;28;20232;-69
2022/09/01 03:00:38;;;;;;;2.30;2.07;;;11.10;99.90;;;;;;8346456;28;20192;-69
2022/09/01 03:04:39;;;;;;;4.23;2.70;;;11.10;99.90;;;;;;8343493;28;20180;-69
2022/09/01 03:08:40;;;;;;;5.37;2.70;;;11.20;99.90;;;;;;8345182;28;20184;-70
2022/09/01 03:12:41;;;;;;;3.60;2.10;;;11.10;99.90;;;;;;8347056;28;20215;-69
2022/09/01 03:16:41;;;;;;;4.13;1.97;;;11.00;99.90;;;;;;8348014;28;20192;-69
2022/09/01 03:20:49;;;;;;;2.90;2.00;;;10.90;99.90;;;;;;8344289;28;20611;-69
2022/09/01 03:24:53;;;;;;;4.17;2.53;;;10.90;99.90;;;;;;8347645;28;20279;-69
2022/09/01 03:28:53;;;;;;;4.03;1.90;;;10.90;99.90;;;;;;8343700;28;20210;-69
2022/09/01 03:32:56;;;;;;;3.03;2.27;;;10.80;99.90;;;;;;8343165;28;20284;-69
2022/09/01 03:36:57;;;;;;;2.60;1.93;;;10.80;99.90;;;;;;8340686;28;20193;-69
2022/09/01 03:41:01;;;;;;;4.73;2.30;;;10.70;99.90;;;;;;8340103;28;20206;-69
2022/09/01 03:45:08;;;;;;;4.10;2.27;;;10.70;99.90;;;;;;8375122;28;20232;-69
2022/09/01 03:49:13;;;;;;;3.27;1.47;;;10.70;99.90;;;;;;8346480;28;20184;-69
2022/09/01 03:53:21;;;;;;;2.77;1.80;;;10.70;99.90;;;;;;8344073;28;20179;-69
2022/09/01 03:57:22;;;;;;;3.10;2.10;;;10.70;99.90;;;;;;8349294;28;20436;-69
2022/09/01 04:01:25;;;;;;;2.77;1.70;;;10.80;99.90;;;;;;8349809;28;20289;-69
2022/09/01 04:05:28;;;;;;;2.27;2.07;;;10.80;99.90;;;;;;8347265;28;20236;-71
2022/09/01 04:09:32;;;;;;;1.93;1.73;;;10.90;99.90;;;;;;8348406;28;20287;-69
2022/09/01 04:13:36;;;;;;;2.80;1.90;;;10.90;99.90;;;;;;8345509;28;20183;-69
2022/09/01 04:21:59;;;;;;;1.80;1.70;;;10.90;99.90;;;;;;8350560;28;20294;-70
2022/09/01 04:26:08;;;;;;;3.10;1.97;;;10.90;99.90;;;;;;8349330;28;20210;-69
2022/09/01 04:30:09;;;;;;;3.93;2.10;;;11.00;99.90;;;;;;8361275;28;20214;-70
2022/09/01 04:34:13;;;;;;;3.23;2.17;;;11.00;99.90;;;;;;8348801;28;20192;-70
2022/09/01 04:38:16;;;;;;;2.97;1.80;;;11.00;99.90;;;;;;8350480;28;20206;-70
2022/09/01 04:42:20;;;;;;;2.23;1.80;;;11.10;99.90;;;;;;8348440;28;20267;-70
2022/09/01 04:46:21;;;;;;;3.03;1.80;;;11.10;99.90;;;;;;8353214;28;20272;-70
2022/09/01 04:50:26;;;;;;;2.97;1.77;;;11.20;99.90;;;;;;8349173;28;20196;-70
2022/09/01 04:54:27;;;;;;;2.50;1.80;;;11.30;99.90;;;;;;8345140;28;20423;-69
2022/09/01 04:58:27;;;;;;;4.17;1.80;;;11.40;99.90;;;;;;8348406;28;20189;-69
2022/09/01 05:02:28;;;;;;;3.23;2.00;;;11.50;99.90;;;;;;8344970;28;20220;-68
2022/09/01 05:06:32;;;;;;;3.57;1.87;;;11.60;99.90;;;;;;8348741;28;20217;-69
2022/09/01 05:10:40;;;;;;;6.43;2.10;;;11.80;99.90;;;;;;8347779;28;20184;-68
2022/09/01 05:14:43;;;;;;;3.73;2.13;;;11.90;99.90;;;;;;8346238;28;20208;-69
2022/09/01 05:18:47;;;;;;;2.63;1.87;;;12.10;99.90;;;;;;8348746;28;20199;-72
2022/09/01 05:22:48;;;;;;;4.27;2.30;;;12.20;99.90;;;;;;8347582;28;20248;-68
2022/09/01 05:26:49;;;;;;;2.10;1.87;;;12.40;99.90;;;;;;8346951;28;20204;-69
2022/09/01 05:30:53;;;;;;;2.73;2.17;;;12.50;99.90;;;;;;8346584;28;20273;-69
2022/09/01 05:34:53;;;;;;;3.13;2.00;;;12.70;99.90;;;;;;8348846;28;20203;-68
2022/09/01 05:38:56;;;;;;;4.50;2.80;;;12.90;99.90;;;;;;8346758;28;20208;-69
2022/09/01 05:42:58;;;;;;;5.67;3.23;;;13.10;99.90;;;;;;8346651;28;20300;-69
2022/09/01 05:46:58;;;;;;;8.53;4.23;;;13.20;99.90;;;;;;8347262;28;20208;-69
2022/09/01 05:50:59;;;;;;;5.93;3.77;;;13.20;99.90;;;;;;8345512;28;20210;-69
2022/09/01 05:55:00;;;;;;;12.57;6.40;;;13.40;99.90;;;;;;8349810;28;20216;-69
2022/09/01 05:59:01;;;;;;;9.07;5.37;;;13.50;99.90;;;;;;8364266;28;20178;-68
2022/09/01 06:03:03;;;;;;;9.27;3.63;;;13.70;99.90;;;;;;8341704;28;20207;-68
2022/09/01 06:07:06;;;;;;;7.63;5.10;;;13.90;99.90;;;;;;8347434;28;20182;-68
2022/09/01 06:11:12;;;;;;;14.03;6.10;;;14.10;99.90;;;;;;8345701;28;20593;-69
2022/09/01 06:15:17;;;;;;;11.00;6.47;;;14.40;99.90;;;;;;8350868;28;20182;-69
2022/09/01 06:19:19;;;;;;;8.10;5.17;;;14.60;99.90;;;;;;8344384;28;20246;-69
2022/09/01 06:23:20;;;;;;;7.60;4.87;;;14.90;99.90;;;;;;8347761;28;20237;-69
2022/09/01 06:27:21;;;;;;;7.63;4.13;;;15.00;1.00;;;;;;8345664;28;20754;-70
2022/09/01 06:31:23;;;;;;;9.73;5.37;;;15.20;15.00;;;;;;8347394;28;20192;-69
2022/09/01 06:35:28;;;;;;;6.10;4.00;;;15.40;1.00;;;;;;8346111;28;20220;-69
2022/09/01 06:39:30;;;;;;;3.00;2.27;;;15.60;99.90;;;;;;8345192;28;20330;-69
2022/09/01 06:43:32;;;;;;;10.47;4.90;;;15.70;73.00;;;;;;8347891;28;20234;-68
2022/09/01 06:47:33;;;;;;;3.87;2.30;;;15.70;34.30;;;;;;8344589;28;20190;-69
2022/09/01 06:51:35;;;;;;;6.03;2.53;;;15.90;11.60;;;;;;8344463;28;20190;-69
2022/09/01 06:55:37;;;;;;;5.47;2.57;;;16.10;1.00;;;;;;8346476;28;20187;-69
2022/09/01 06:59:38;;;;;;;7.13;3.17;;;16.40;1.00;;;;;;8354177;28;20189;-69
2022/09/01 07:03:39;;;;;;;6.00;2.13;;;16.70;1.00;;;;;;8342096;28;20300;-69
2022/09/01 07:07:49;;;;;;;3.80;2.60;;;16.90;99.90;;;;;;8344204;28;20220;-68
2022/09/01 07:11:51;;;;;;;7.83;5.10;;;16.90;99.90;;;;;;8346698;28;20201;-70
2022/09/01 07:15:54;;;;;;;6.77;3.03;;;17.00;99.90;;;;;;8343902;28;20245;-69
2022/09/01 07:19:54;;;;;;;5.13;2.60;;;17.20;99.90;;;;;;8349292;28;20193;-68
2022/09/01 07:23:57;;;;;;;4.80;2.23;;;17.20;99.90;;;;;;8380135;28;20214;-69
2022/09/01 07:28:00;;;;;;;5.17;3.00;;;17.30;99.90;;;;;;8345029;28;20220;-69
2022/09/01 07:32:01;;;;;;;3.80;2.40;;;17.50;99.90;;;;;;8348167;28;20197;-69
2022/09/01 07:36:03;;;;;;;4.17;1.90;;;17.50;99.90;;;;;;8351687;28;20604;-69
2022/09/01 07:40:11;;;;;;;14.17;6.17;;;17.70;99.90;;;;;;8350503;28;20275;-70
2022/09/01 07:44:12;;;;;;;11.33;2.13;;;18.00;99.90;;;;;;8352243;28;20209;-69
2022/09/01 07:48:17;;;;;;;6.37;2.43;;;18.10;99.90;;;;;;8351257;28;20572;-70
2022/09/01 07:52:19;;;;;;;3.40;2.20;;;18.10;99.90;;;;;;8349477;28;20276;-70
2022/09/01 07:56:21;;;;;;;10.70;4.67;;;18.20;99.90;;;;;;8350999;28;20190;-70
2022/09/01 08:00:22;;;;;;;3.67;1.93;;;18.10;99.90;;;;;;8368833;28;20190;-70
2022/09/01 08:04:25;;;;;;;4.83;2.37;;;18.10;99.90;;;;;;8350051;28;20270;-70
2022/09/01 08:08:26;;;;;;;2.50;1.50;;;18.10;99.90;;;;;;8351473;28;20190;-69
2022/09/01 08:12:27;;;;;;;4.20;1.30;;;18.20;99.90;;;;;;8349836;28;20212;-70
2022/09/01 08:16:29;;;;;;;5.50;1.47;;;18.30;99.90;;;;;;8349530;28;20209;-70
2022/09/01 08:20:33;;;;;;;1.80;1.33;;;18.40;99.90;;;;;;8345996;28;20221;-70
2022/09/01 08:24:34;;;;;;;1.23;0.90;;;18.40;99.90;;;;;;8347182;28;20321;-69
2022/09/01 08:28:36;;;;;;;3.97;1.23;;;18.60;99.90;;;;;;8350320;28;20189;-70
2022/09/01 08:32:37;;;;;;;4.57;1.47;;;18.60;99.90;;;;;;8347414;28;20193;-70
2022/09/01 08:36:37;;;;;;;4.13;1.10;;;18.70;99.90;;;;;;8349591;28;20220;-68
2022/09/01 08:40:40;;;;;;;2.33;1.23;;;18.90;99.90;;;;;;8352877;28;20186;-69
2022/09/01 08:45:12;;;;;;;3.07;1.50;;;19.10;99.90;;;;;;8350920;28;20217;-70
2022/09/01 08:49:20;;;;;;;3.83;1.40;;;19.30;60.60;;;;;;8346878;28;20265;-71
2022/09/01 08:53:27;;;;;;;7.50;3.77;;;19.70;15.60;;;;;;8345479;28;20202;-69
2022/09/01 08:57:38;;;;;;;2.93;0.97;;;20.00;1.00;;;;;;8356396;28;20190;-70
2022/09/01 09:02:07;;;;;;;1.73;0.50;;;20.20;1.00;;;;;;8344466;28;20205;-69
2022/09/01 09:06:24;;;;;;;1.63;0.50;;;20.50;1.00;;;;;;8375557;28;20193;-69
2022/09/01 09:10:36;;;;;;;1.90;0.90;;;20.90;1.00;;;;;;8368420;28;20186;-69
2022/09/01 09:14:44;;;;;;;3.83;1.23;;;21.30;1.00;;;;;;8348593;28;20240;-69
2022/09/01 09:18:53;;;;;;;2.70;1.10;;;21.60;1.00;;;;;;8345875;28;20209;-71
2022/09/01 09:22:55;;;;;;;3.17;0.63;;;21.70;1.00;;;;;;8349737;28;20209;-71
2022/09/01 09:26:58;;;;;;;2.10;0.60;;;21.70;1.00;;;;;;8355280;28;20198;-72
2022/09/01 09:31:25;;;;;;;1.60;0.70;;;21.70;1.00;;;;;;8345513;28;20183;-69
2022/09/01 09:35:31;;;;;;;1.30;0.60;;;21.40;1.00;;;;;;8344989;28;20185;-70
2022/09/01 09:39:33;;;;;;;1.97;0.73;;;21.20;1.00;;;;;;8361346;28;20239;-70
2022/09/01 09:43:42;;;;;;;2.70;1.10;;;21.30;1.00;;;;;;8347414;28;20217;-70
2022/09/01 09:47:45;;;;;;;2.93;0.90;;;21.30;1.00;;;;;;8346677;28;20189;-70
2022/09/01 09:51:56;;;;;;;5.57;2.20;;;21.40;1.00;;;;;;8354759;28;20205;-68
2022/09/01 09:56:01;;;;;;;4.03;2.13;;;21.20;1.00;;;;;;8349977;28;20281;-69
2022/09/01 10:00:17;;;;;;;1.80;0.60;;;21.00;1.00;;;;;;8356086;28;20181;-69
2022/09/01 10:04:36;;;;;;;2.57;0.70;;;20.70;1.00;;;;;;8343659;28;20210;-68
2022/09/01 10:08:44;;;;;;;11.80;4.20;;;20.50;1.00;;;;;;8346019;28;20186;-69
2022/09/01 10:12:44;;;;;;;2.23;1.23;;;20.30;1.00;;;;;;8345931;28;20283;-69
2022/09/01 10:16:50;;;;;;;1.67;0.80;;;20.30;1.00;;;;;;8361276;28;20186;-69
2022/09/01 10:21:07;;;;;;;5.50;1.20;;;20.30;1.00;;;;;;8361623;28;20324;-69
2022/09/01 10:25:11;;;;;;;2.33;1.13;;;20.50;1.00;;;;;;8351270;28;20186;-70
2022/09/01 10:29:42;;;;;;;2.70;1.00;;;21.10;1.00;;;;;;8374155;28;20209;-67
2022/09/01 10:33:43;;;;;;;1.93;0.70;;;21.60;1.00;;;;;;8344463;28;20677;-70
2022/09/01 10:37:46;;;;;;;2.10;0.73;;;22.00;1.00;;;;;;8343424;28;20213;-71
2022/09/01 10:41:55;;;;;;;1.30;0.73;;;22.50;1.00;;;;;;8347389;28;20221;-68
2022/09/01 10:45:56;;;;;;;4.77;1.00;;;22.70;1.00;;;;;;8376919;28;20274;-67
2022/09/01 10:50:00;;;;;;;0.97;0.30;;;22.40;1.00;;;;;;8348259;28;20190;-69
2022/09/01 10:54:04;;;;;;;4.97;1.93;;;22.10;1.00;;;;;;8344640;28;20248;-70
2022/09/01 10:58:23;;;;;;;1.30;0.70;;;22.00;1.00;;;;;;8345217;28;20197;-69
2022/09/01 11:02:23;;;;;;;1.43;0.73;;;21.80;1.00;;;;;;8343328;28;20216;-69
2022/09/01 11:06:42;;;;;;;1.50;0.90;;;21.40;1.00;;;;;;8348224;28;20185;-69
2022/09/01 11:11:02;;;;;;;1.97;1.00;;;21.20;1.00;;;;;;8362658;28;20243;-69
2022/09/01 11:15:26;;;;;;;1.03;0.60;;;21.10;1.00;;;;;;8346763;28;20500;-69
2022/09/01 11:19:40;;;;;;;3.70;1.30;;;21.00;1.00;;;;;;8343533;28;20263;-69
2022/09/01 11:23:41;;;;;;;1.23;0.80;;;21.00;1.00;;;;;;8360706;28;20225;-70
2022/09/01 11:27:47;;;;;;;1.00;0.70;;;21.10;1.00;;;;;;8346466;28;20206;-69
2022/09/01 11:31:49;;;;;;;1.70;0.80;;;21.10;1.00;;;;;;8342044;28;20212;-70
2022/09/01 11:36:05;;;;;;;2.23;1.30;;;21.10;1.00;;;;;;8342348;28;20193;-69
2022/09/01 11:40:09;;;;;;;7.27;3.63;;;20.90;1.00;;;;;;8360408;28;20192;-69
2022/09/01 11:44:32;;;;;;;5.73;2.33;;;20.70;1.00;;;;;;8343665;28;20259;-68
2022/09/01 11:48:33;;;;;;;4.37;2.30;;;20.60;1.00;;;;;;8342770;28;20190;-69
2022/09/01 11:52:37;;;;;;;1.37;0.73;;;20.50;1.00;;;;;;8344495;28;20297;-69
2022/09/01 11:56:38;;;;;;;1.50;0.87;;;20.60;1.00;;;;;;8358091;28;20201;-69
2022/09/01 12:00:41;;;;;;;1.53;0.60;;;20.60;1.00;;;;;;8345490;28;20182;-71
2022/09/01 12:04:42;;;;;;;1.10;0.70;;;20.70;1.00;;;;;;8340905;28;20241;-69
2022/09/01 12:08:52;;;;;;;2.90;1.00;;;20.80;1.00;;;;;;8344821;28;20184;-68
2022/09/01 12:13:01;;;;;;;4.37;1.20;;;20.90;1.00;;;;;;8341530;28;20213;-69
2022/09/01 12:17:05;;;;;;;1.43;0.83;;;20.80;1.00;;;;;;8336920;28;20186;-69
2022/09/01 12:21:08;;;;;;;0.80;0.67;;;20.70;1.00;;;;;;8350466;28;20201;-68
2022/09/01 12:25:25;;;;;;;0.87;0.60;;;20.60;1.00;;;;;;8350120;28;20181;-69
2022/09/01 12:29:28;;;;;;;2.37;0.90;;;20.50;1.00;;;;;;8348839;28;20186;-68
2022/09/01 12:33:30;;;;;;;1.23;0.60;;;20.50;1.00;;;;;;8350470;28;20208;-68
2022/09/01 12:37:30;;;;;;;1.13;0.77;;;20.90;1.00;;;;;;8348360;28;20194;-68
2022/09/01 12:41:38;;;;;;;2.30;0.70;;;21.10;1.00;;;;;;8347601;28;20201;-69
2022/09/01 12:45:46;;;;;;;3.00;0.63;;;21.40;1.00;;;;;;8377373;28;20182;-68
2022/09/01 12:49:47;;;;;;;1.30;0.50;;;21.60;1.00;;;;;;8349211;28;20289;-70
2022/09/01 12:53:59;;;;;;;1.17;0.70;;;21.70;1.00;;;;;;8345784;28;20193;-69
2022/09/01 12:58:11;;;;;;;1.67;0.70;;;21.80;1.00;;;;;;8355842;28;20190;-69
2022/09/01 13:02:40;;;;;;;0.90;0.43;;;21.60;1.00;;;;;;8350433;28;20204;-68
2022/09/01 13:06:41;;;;;;;3.27;1.10;;;21.60;1.00;;;;;;8379085;28;20193;-69
2022/09/01 13:10:47;;;;;;;0.73;0.43;;;21.60;1.00;;;;;;8349665;28;20182;-69
2022/09/01 13:14:48;;;;;;;1.23;0.63;;;21.50;1.00;;;;;;8356542;28;20209;-68
2022/09/01 13:18:48;;;;;;;1.37;0.53;;;21.30;1.00;;;;;;8350016;28;20205;-70
2022/09/01 13:22:49;;;;;;;0.83;0.40;;;21.00;1.00;;;;;;8350093;28;20301;-69
2022/09/01 13:26:54;;;;;;;1.00;0.40;;;20.70;1.00;;;;;;8349770;28;20256;-69
2022/09/01 13:30:58;;;;;;;1.77;0.30;;;20.90;1.00;;;;;;8341645;28;20302;-69
2022/09/01 13:34:59;;;;;;;2.60;0.60;;;21.20;1.00;;;;;;8347410;28;20217;-69
2022/09/01 13:39:00;;;;;;;0.83;0.43;;;21.50;1.00;;;;;;8347849;28;20278;-69
2022/09/01 13:43:03;;;;;;;0.93;0.50;;;21.50;1.00;;;;;;8347473;28;20214;-69
2022/09/01 13:47:04;;;;;;;1.00;0.47;;;21.50;1.00;;;;;;8346017;28;20272;-71
2022/09/01 13:51:05;;;;;;;0.50;0.30;;;21.70;1.00;;;;;;8346772;28;20182;-69
2022/09/01 13:55:09;;;;;;;1.00;0.40;;;21.80;1.00;;;;;;8348969;28;20605;-69
2022/09/01 13:59:10;;;;;;;1.77;0.40;;;21.50;1.00;;;;;;8348488;28;20182;-69
2022/09/01 14:03:16;;;;;;;1.03;0.40;;;21.10;1.00;;;;;;8347297;28;20214;-69
2022/09/01 14:07:17;;;;;;;3.03;0.80;;;20.90;1.00;;;;;;8364496;28;20189;-69
2022/09/01 14:11:18;;;;;;;3.20;2.27;;;20.70;1.00;;;;;;8350142;28;20207;-69
2022/09/01 14:15:20;;;;;;;5.93;3.33;;;21.00;1.00;;;;;;8345764;28;20445;-71
2022/09/01 14:19:23;;;;;;;3.13;1.20;;;21.60;1.00;;;;;;8349302;28;20202;-67
2022/09/01 14:23:24;;;;;;;1.03;0.50;;;22.20;1.00;;;;;;8346145;28;20290;-67
2022/09/01 14:27:25;;;;;;;1.83;0.40;;;22.60;1.00;;;;;;8350165;28;20182;-68
2022/09/01 14:31:26;;;;;;;1.03;0.50;;;22.70;1.00;;;;;;8346545;28;20603;-67
2022/09/01 14:35:27;;;;;;;0.67;0.33;;;22.80;1.00;;;;;;8344632;28;20197;-68
2022/09/01 14:39:29;;;;;;;2.60;0.70;;;22.60;1.00;;;;;;8349342;28;20309;-68
2022/09/01 14:43:31;;;;;;;2.97;0.50;;;22.10;1.00;;;;;;8344063;28;20213;-67
2022/09/01 14:47:32;;;;;;;0.73;0.33;;;21.70;1.00;;;;;;8344883;28;20189;-69
2022/09/01 14:51:35;;;;;;;0.87;0.50;;;21.20;1.00;;;;;;8342468;28;20215;-69
2022/09/01 14:55:35;;;;;;;0.90;0.60;;;21.00;1.00;;;;;;8342176;28;20198;-69
2022/09/01 14:59:36;;;;;;;1.40;0.67;;;21.10;1.00;;;;;;8344541;28;20196;-68
2022/09/01 15:03:37;;;;;;;0.70;0.20;;;21.50;1.00;;;;;;8343691;28;20217;-70
2022/09/01 15:07:39;;;;;;;0.80;0.40;;;21.90;1.00;;;;;;8345520;28;20197;-68
2022/09/01 15:11:43;;;;;;;0.60;0.40;;;22.10;1.00;;;;;;8345957;28;20209;-68
2022/09/01 15:15:44;;;;;;;1.33;0.70;;;22.20;1.00;;;;;;8361811;28;20194;-68
2022/09/01 15:19:45;;;;;;;2.20;0.57;;;22.10;1.00;;;;;;8344516;28;20229;-68
2022/09/01 15:23:47;;;;;;;1.13;0.50;;;21.60;1.00;;;;;;8350854;28;20290;-69
2022/09/01 15:27:48;;;;;;;2.63;0.50;;;21.10;1.00;;;;;;8346044;28;20248;-68
2022/09/01 15:31:49;;;;;;;1.90;0.83;;;20.60;1.00;;;;;;8343585;28;20190;-68
2022/09/01 15:35:50;;;;;;;3.07;1.23;;;20.30;1.00;;;;;;8342652;28;20296;-69
2022/09/01 15:39:51;;;;;;;2.77;1.60;;;20.00;1.00;;;;;;8342341;28;20189;-69
2022/09/01 15:43:53;;;;;;;1.90;1.47;;;19.90;1.00;;;;;;8346581;28;20702;-69
2022/09/01 15:47:53;;;;;;;2.37;1.00;;;19.90;1.00;;;;;;8347132;28;20273;-69
2022/09/01 15:51:56;;;;;;;2.17;1.47;;;19.90;1.00;;;;;;8343400;28;20196;-69
2022/09/01 15:55:58;;;;;;;5.23;1.20;;;20.00;1.00;;;;;;8348350;28;20186;-68
2022/09/01 15:59:59;;;;;;;1.77;0.67;;;19.90;1.00;;;;;;8351902;28;20190;-69
2022/09/01 16:04:00;;;;;;;2.30;0.67;;;19.90;1.00;;;;;;8347379;28;20313;-69
2022/09/01 16:08:03;;;;;;;0.60;0.30;;;20.00;1.00;;;;;;8347214;28;20181;-68
2022/09/01 16:12:05;;;;;;;2.00;0.70;;;19.90;1.00;;;;;;8349225;28;20304;-68
2022/09/01 16:16:08;;;;;;;1.63;0.60;;;19.90;1.00;;;;;;8350755;28;20186;-69
2022/09/01 16:20:19;;;;;;;1.17;0.40;;;19.80;1.00;;;;;;8349360;28;20208;-69
2022/09/01 16:24:22;;;;;;;1.10;0.40;;;19.70;1.00;;;;;;8363117;28;20218;-68
2022/09/01 16:28:29;;;;;;;1.53;0.60;;;19.60;1.00;;;;;;8350048;28;20194;-69
2022/09/01 16:32:32;;;;;;;3.27;0.70;;;19.50;1.00;;;;;;8359748;28;20186;-69
2022/09/01 16:36:44;;;;;;;1.90;0.90;;;19.40;1.00;;;;;;8345768;28;20209;-68
2022/09/01 16:41:16;;;;;;;2.77;1.00;;;19.40;1.00;;;;;;8349943;28;20254;-68
2022/09/01 16:45:24;;;;;;;2.27;1.40;;;19.30;1.00;;;;;;8364740;28;20228;-72
2022/09/01 16:49:37;;;;;;;7.57;1.50;;;19.30;1.00;;;;;;8344486;28;20186;-69
2022/09/01 16:54:29;;;;;;;2.80;1.50;;;19.20;1.00;;;;;;8364146;28;20201;-69
2022/09/01 16:58:39;;;;;;;1.57;1.03;;;19.20;1.00;;;;;;8335458;28;20265;-69
2022/09/01 17:03:21;;;;;;;1.80;0.80;;;19.20;1.00;;;;;;8345830;28;20225;-69
2022/09/01 17:07:37;;;;;;;1.77;0.70;;;19.10;1.00;;;;;;8347117;28;20198;-69
2022/09/01 17:12:05;;;;;;;0.97;0.40;;;19.00;1.00;;;;;;8361099;28;20280;-69
2022/09/01 17:16:23;;;;;;;1.70;0.90;;;18.90;1.00;;;;;;8363108;28;20190;-69
2022/09/01 17:20:29;;;;;;;2.07;1.03;;;18.70;1.00;;;;;;8344731;28;20208;-69
2022/09/01 17:24:41;;;;;;;3.97;1.70;;;18.50;1.00;;;;;;8346737;28;20204;-69
2022/09/01 17:28:50;;;;;;;3.93;1.93;;;18.30;1.00;;;;;;8341859;28;20182;-69
2022/09/01 17:33:07;;;;;;;2.10;1.40;;;18.10;1.00;;;;;;8346566;28;20186;-69
2022/09/01 17:37:26;;;;;;;2.90;1.30;;;17.80;1.00;;;;;;8345774;28;20283;-69
2022/09/01 17:41:44;;;;;;;1.37;0.63;;;17.50;1.00;;;;;;8341629;28;20174;-69
2022/09/01 17:46:13;;;;;;;1.73;0.50;;;17.10;94.10;;;;;;8348416;28;20182;-69
2022/09/01 17:50:21;;;;;;;1.73;1.00;;;16.60;99.90;;;;;;8346530;28;20265;-69
2022/09/01 17:55:09;;;;;;;0.90;0.53;;;16.10;99.90;;;;;;8346271;28;20186;-69
2022/09/01 17:59:40;;;;;;;1.30;0.67;;;15.70;99.90;;;;;;8342256;28;20186;-69
2022/09/01 18:04:00;;;;;;;1.07;0.50;;;15.30;99.90;;;;;;8342522;28;20237;-69
2022/09/01 18:08:26;;;;;;;2.53;0.57;;;14.90;1.00;;;;;;8346651;28;20194;-68
2022/09/01 18:12:30;;;;;;;1.13;0.80;;;14.60;1.00;;;;;;8343229;28;20201;-69
2022/09/01 18:16:42;;;;;;;2.33;0.70;;;14.30;1.00;;;;;;8346693;28;20182;-69
2022/09/01 18:20:47;;;;;;;0.77;0.40;;;14.00;99.90;;;;;;8344725;28;20192;-68
2022/09/01 18:25:03;;;;;;;1.77;0.53;;;13.80;99.90;;;;;;8347883;28;20279;-68
2022/09/01 18:29:05;;;;;;;0.90;0.50;;;13.60;99.90;;;;;;8346399;28;20174;-72
2022/09/01 18:33:24;;;;;;;0.83;0.50;;;13.40;99.90;;;;;;8345314;28;20182;-68
2022/09/01 18:37:34;;;;;;;0.80;0.50;;;13.20;99.90;;;;;;8346156;28;20273;-69
2022/09/01 18:41:53;;;;;;;1.20;0.50;;;13.00;1.00;;;;;;8357719;28;20186;-69
2022/09/01 18:46:12;;;;;;;0.57;0.43;;;12.80;1.00;;;;;;8345368;28;20444;-68
2022/09/01 18:50:38;;;;;;;1.27;0.80;;;12.60;1.00;;;;;;8347536;28;20189;-68
2022/09/01 18:55:14;;;;;;;1.47;0.80;;;12.50;99.90;;;;;;8375702;28;20205;-68
2022/09/01 18:59:53;;;;;;;1.10;1.00;;;12.30;99.90;;;;;;8375733;28;20200;-68
2022/09/01 19:04:22;;;;;;;2.03;0.70;;;12.20;99.90;;;;;;8373758;28;20219;-68
2022/09/01 19:08:40;;;;;;;0.60;0.40;;;12.10;1.00;;;;;;8346777;28;20205;-68
2022/09/01 19:12:47;;;;;;;1.53;0.83;;;12.00;1.00;;;;;;8344727;28;20216;-68
2022/09/01 19:17:00;;;;;;;1.57;0.70;;;11.90;46.20;;;;;;8358451;28;20190;-68
2022/09/01 19:21:21;;;;;;;0.77;0.40;;;11.80;99.90;;;;;;8338982;28;20212;-68
2022/09/01 19:25:37;;;;;;;1.47;0.80;;;11.60;99.90;;;;;;8349489;28;20205;-68
2022/09/01 19:29:52;;;;;;;1.07;0.73;;;11.60;99.90;;;;;;8350195;28;20243;-68
2022/09/01 19:33:59;;;;;;;1.10;0.67;;;11.50;1.00;;;;;;8365328;28;20184;-69
2022/09/01 19:38:05;;;;;;;0.70;0.60;;;11.40;1.00;;;;;;8351272;28;20196;-68
2022/09/01 19:42:18;;;;;;;0.97;0.80;;;11.30;1.00;;;;;;8353783;28;20193;-68
2022/09/01 19:46:27;;;;;;;1.30;0.70;;;11.30;17.30;;;;;;8351829;28;20184;-68
2022/09/01 19:50:38;;;;;;;1.10;0.80;;;11.30;99.90;;;;;;8350774;28;20189;-68
2022/09/01 19:55:04;;;;;;;1.00;0.60;;;11.20;99.90;;;;;;8359973;28;20196;-69
2022/09/01 19:59:17;;;;;;;1.40;0.67;;;11.20;99.90;;;;;;8350341;28;20180;-68
2022/09/01 20:03:36;;;;;;;1.43;0.57;;;11.30;99.90;;;;;;8345716;28;20614;-68
2022/09/01 20:07:46;;;;;;;1.40;0.90;;;11.40;88.20;;;;;;8357759;28;20207;-69
2022/09/01 20:11:50;;;;;;;1.70;0.70;;;11.50;3.20;;;;;;8365545;28;20223;-68
2022/09/01 20:16:04;;;;;;;2.73;0.90;;;11.60;1.00;;;;;;8383495;28;20181;-68
2022/09/01 20:20:08;;;;;;;1.87;0.80;;;11.70;1.00;;;;;;8365915;28;20319;-69
2022/09/01 20:24:37;;;;;;;0.97;0.60;;;11.70;1.00;;;;;;8347169;28;20213;-69
2022/09/01 20:28:43;;;;;;;1.70;0.77;;;11.80;1.00;;;;;;8350343;28;20185;-68
2022/09/01 20:32:59;;;;;;;0.70;0.60;;;11.80;1.00;;;;;;8340084;28;20187;-68
2022/09/01 20:37:22;;;;;;;0.80;0.60;;;11.80;1.00;;;;;;8348694;28;20603;-68
2022/09/01 20:41:30;;;;;;;1.10;0.70;;;11.80;99.90;;;;;;8348037;28;20184;-68
2022/09/01 20:45:31;;;;;;;1.40;0.80;;;11.80;1.00;;;;;;8350302;28;20207;-68
2022/09/01 20:49:33;;;;;;;2.23;1.10;;;11.80;99.90;;;;;;8348837;28;20177;-68
2022/09/01 20:53:53;;;;;;;1.33;0.90;;;11.80;1.00;;;;;;8381159;28;20197;-68
2022/09/01 20:58:14;;;;;;;1.50;0.90;;;11.80;45.90;;;;;;8350326;28;20634;-68
2022/09/01 21:02:30;;;;;;;2.37;1.20;;;11.90;44.40;;;;;;8349336;28;20264;-68
2022/09/01 21:06:40;;;;;;;2.10;1.20;;;11.90;1.00;;;;;;8341181;28;20186;-68
2022/09/01 21:11:13;;;;;;;3.13;1.40;;;11.90;1.00;;;;;;8364894;28;20182;-67
2022/09/01 21:15:45;;;;;;;1.53;1.10;;;11.90;99.90;;;;;;8337584;28;20225;-68
2022/09/01 21:20:29;;;;;;;2.77;1.40;;;11.80;99.90;;;;;;8375968;28;20201;-68
2022/09/01 21:24:30;;;;;;;3.23;1.73;;;11.80;1.00;;;;;;8289221;28;20315;-68
2022/09/01 21:28:32;;;;;;;2.60;1.67;;;11.90;58.20;;;;;;8279084;28;20185;-68
2022/09/01 21:32:34;;;;;;;1.77;1.47;;;11.90;99.90;;;;;;8273256;28;20186;-68
2022/09/01 21:36:35;;;;;;;1.40;1.20;;;11.90;1.00;;;;;;8288202;28;20192;-67
2022/09/01 21:40:36;;;;;;;1.50;1.40;;;11.90;99.90;;;;;;8281715;28;20192;-67